Time;durP1;ratioP1;P1;durP2;ratioP2;P2;SDS_P1;SDS_P2;PMS_P1;PMS_P2;Temp;Humidity;BMP_temperature;BMP_pressure;BME280_temperature;BME280_humidity;BME280_pressure;Samples;Min_cycle;Max_cycle;Signal;HPM_P1;HPM_P2
2022/10/09 00:00:16;;;;;;;;;;;11.70;99.90;;;;;;5009792;28;20022;-76
2022/10/09 00:02:41;;;;;;;10.95;6.10;;;11.70;99.90;;;;;;5009311;28;19980;-75
2022/10/09 00:05:07;;;;;;;;;;;11.60;99.90;;;;;;5026351;28;20022;-76
2022/10/09 00:07:33;;;;;;;8.95;7.22;;;11.60;99.90;;;;;;5009434;28;19906;-76
2022/10/09 00:09:58;;;;;;;;;;;11.60;99.90;;;;;;5010020;28;20125;-76
2022/10/09 00:12:24;;;;;;;11.27;6.60;;;11.60;99.90;;;;;;5010348;28;20378;-76
2022/10/09 00:14:49;;;;;;;;;;;11.60;99.90;;;;;;5010969;28;20033;-76
2022/10/09 00:17:15;;;;;;;11.85;8.02;;;11.60;99.90;;;;;;5010625;28;19936;-76
2022/10/09 00:19:40;;;;;;;;;;;11.60;99.90;;;;;;5010917;28;20025;-75
2022/10/09 00:22:06;;;;;;;10.98;6.65;;;11.70;99.90;;;;;;5022972;28;20012;-76
2022/10/09 00:24:31;;;;;;;;;;;11.70;99.90;;;;;;5029615;28;20104;-76
2022/10/09 00:26:57;;;;;;;8.05;5.45;;;11.60;99.90;;;;;;5008810;28;19913;-75
2022/10/09 00:29:22;;;;;;;;;;;11.70;99.90;;;;;;5009209;28;20029;-76
2022/10/09 00:31:49;;;;;;;10.45;6.47;;;11.70;99.90;;;;;;5010009;28;19909;-76
2022/10/09 00:34:14;;;;;;;10.95;6.65;;;11.70;99.90;;;;;;5009250;28;20069;-75
2022/10/09 00:36:40;;;;;;;;;;;11.70;99.90;;;;;;5010483;28;20088;-76
2022/10/09 00:39:06;;;;;;;15.43;7.82;;;11.70;99.90;;;;;;5010017;28;19909;-76
2022/10/09 00:41:33;;;;;;;;;;;11.60;99.90;;;;;;5008957;28;20487;-76
2022/10/09 00:44:22;;;;;;;10.05;6.72;;;11.60;99.90;;;;;;5009963;28;19909;-76
2022/10/09 00:46:51;;;;;;;17.60;5.97;;;11.70;99.90;;;;;;5009644;28;20044;-75
2022/10/09 00:49:33;;;;;;;9.73;5.55;;;11.60;99.90;;;;;;5010049;28;20589;-75
2022/10/09 00:52:04;;;;;;;8.40;6.18;;;11.50;99.90;;;;;;5009747;28;20026;-75
2022/10/09 00:54:32;;;;;;;18.73;7.15;;;11.50;99.90;;;;;;5008424;28;20348;-75
2022/10/09 00:56:58;;;;;;;9.35;6.95;;;11.50;99.90;;;;;;5009935;28;20029;-75
2022/10/09 00:59:24;;;;;;;;;;;11.50;99.90;;;;;;5010117;28;20048;-76
2022/10/09 01:01:49;;;;;;;12.07;6.25;;;11.50;99.90;;;;;;5009746;28;19992;-76
2022/10/09 01:04:15;;;;;;;;;;;11.70;99.90;;;;;;5009989;28;20424;-76
2022/10/09 01:07:26;;;;;;;9.43;6.10;;;11.80;99.90;;;;;;5009581;28;19906;-76
2022/10/09 01:10:12;;;;;;;18.35;10.93;;;11.70;99.90;;;;;;4967833;28;20065;-75
2022/10/09 01:13:21;;;;;;;13.52;7.60;;;11.70;99.90;;;;;;5009380;28;20073;-75
2022/10/09 01:15:54;;;;;;;12.75;7.82;;;11.70;99.90;;;;;;4951728;28;20073;-76
2022/10/09 01:18:43;;;;;;;12.45;6.95;;;11.60;99.90;;;;;;5014674;28;20041;-75
2022/10/09 01:21:21;;;;;;;10.35;7.32;;;11.60;99.90;;;;;;5027850;28;20021;-75
2022/10/09 01:24:13;;;;;;;9.73;6.70;;;11.60;99.90;;;;;;5029085;28;20029;-77
2022/10/09 01:27:03;;;;;;;9.68;6.63;;;11.60;99.90;;;;;;5020922;28;20121;-77
2022/10/09 01:29:40;;;;;;;11.73;8.00;;;11.50;99.90;;;;;;5027821;28;20057;-75
2022/10/09 01:32:08;;;;;;;10.30;6.50;;;11.50;99.90;;;;;;5027486;28;20091;-75
2022/10/09 01:34:36;;;;;;;17.23;7.82;;;11.40;99.90;;;;;;5028857;28;20044;-75
2022/10/09 01:37:02;;;;;;;11.52;7.53;;;11.50;99.90;;;;;;5028934;28;20017;-75
2022/10/09 01:39:29;;;;;;;12.13;7.72;;;11.40;99.90;;;;;;5027007;28;20037;-75
2022/10/09 01:41:56;;;;;;;12.30;8.65;;;11.40;99.90;;;;;;5027808;28;20125;-75
2022/10/09 01:44:32;;;;;;;14.80;7.57;;;11.40;99.90;;;;;;5028824;28;20025;-75
2022/10/09 01:46:58;;;;;;;14.43;7.35;;;11.40;99.90;;;;;;5028936;28;20036;-75
2022/10/09 01:50:02;;;;;;;11.73;8.18;;;11.40;99.90;;;;;;5027368;28;20930;-75
2022/10/09 01:52:38;;;;;;;11.98;7.50;;;11.40;99.90;;;;;;4986836;28;20495;-75
2022/10/09 01:55:40;;;;;;;10.55;7.13;;;11.30;99.90;;;;;;5020316;28;20037;-76
2022/10/09 01:58:39;;;;;;;10.85;7.57;;;11.30;99.90;;;;;;5027233;28;20041;-75
2022/10/09 02:01:19;;;;;;;11.75;7.28;;;11.30;99.90;;;;;;5027190;28;20045;-75
2022/10/09 02:03:48;;;;;;;17.88;8.65;;;11.20;99.90;;;;;;5027251;28;20057;-75
2022/10/09 02:06:16;;;;;;;99.50;48.72;;;11.20;99.90;;;;;;5028868;28;20033;-75
2022/10/09 02:08:44;;;;;;;48.95;25.75;;;11.20;99.90;;;;;;5028850;28;20021;-75
2022/10/09 02:11:13;;;;;;;15.73;11.90;;;11.20;99.90;;;;;;5027153;28;20029;-75
2022/10/09 02:13:40;;;;;;;14.35;10.57;;;11.20;99.90;;;;;;5028670;28;20594;-75
2022/10/09 02:16:32;;;;;;;20.30;12.55;;;11.20;99.90;;;;;;5028518;28;20490;-76
2022/10/09 02:19:12;;;;;;;21.70;14.95;;;11.20;99.90;;;;;;5030909;28;20034;-75
2022/10/09 02:21:40;;;;;;;48.58;31.95;;;11.20;99.90;;;;;;5027510;28;20585;-75
2022/10/09 02:24:09;;;;;;;32.70;22.77;;;11.30;99.90;;;;;;5028550;28;20068;-75
2022/10/09 02:26:36;;;;;;;33.22;19.88;;;11.30;99.90;;;;;;5028375;28;20033;-75
2022/10/09 02:29:02;;;;;;;17.48;13.57;;;11.30;99.90;;;;;;5027551;28;20034;-75
2022/10/09 02:31:30;;;;;;;20.00;12.20;;;11.30;99.90;;;;;;5027343;28;20048;-75
2022/10/09 02:34:00;;;;;;;21.02;9.60;;;11.30;99.90;;;;;;5028422;28;20087;-76
2022/10/09 02:36:27;;;;;;;15.98;9.90;;;11.30;99.90;;;;;;5028874;28;20045;-75
2022/10/09 02:38:54;;;;;;;16.00;10.55;;;11.20;99.90;;;;;;5028574;28;20805;-75
2022/10/09 02:41:20;;;;;;;15.90;10.27;;;11.20;99.90;;;;;;5027685;28;20025;-75
2022/10/09 02:43:46;;;;;;;13.35;9.25;;;11.20;99.90;;;;;;5027992;28;20033;-76
2022/10/09 02:46:12;;;;;;;;;;;11.20;99.90;;;;;;5029381;28;20048;-75
2022/10/09 02:48:38;;;;;;;12.57;9.48;;;11.30;99.90;;;;;;5029591;28;20003;-75
2022/10/09 02:51:03;;;;;;;;;;;11.30;99.90;;;;;;5030989;28;20486;-75
2022/10/09 02:53:29;;;;;;;13.15;8.80;;;11.40;99.90;;;;;;5031940;28;19920;-76
2022/10/09 02:55:55;;;;;;;13.73;9.25;;;11.40;99.90;;;;;;5030506;28;20120;-75
2022/10/09 02:58:21;;;;;;;;;;;11.40;99.90;;;;;;5030925;28;20124;-75
2022/10/09 03:00:50;;;;;;;15.48;9.23;;;11.30;99.90;;;;;;5031851;28;19905;-76
2022/10/09 03:03:16;;;;;;;13.45;10.45;;;11.30;99.90;;;;;;5031702;28;20088;-75
2022/10/09 03:05:42;;;;;;;;;;;11.20;99.90;;;;;;5031016;28;20052;-75
2022/10/09 03:08:08;;;;;;;16.27;10.77;;;11.20;99.90;;;;;;5030331;28;19915;-75
2022/10/09 03:10:35;;;;;;;;;;;11.10;99.90;;;;;;5030804;28;20032;-76
2022/10/09 03:13:01;;;;;;;18.67;9.40;;;11.10;99.90;;;;;;5031832;28;19963;-75
2022/10/09 03:15:26;;;;;;;;;;;11.10;99.90;;;;;;5032079;28;20053;-75
2022/10/09 03:17:52;;;;;;;16.40;8.80;;;11.10;99.90;;;;;;5030280;28;20352;-75
2022/10/09 03:20:18;;;;;;;;;;;11.10;99.90;;;;;;5030549;28;20561;-75
2022/10/09 03:22:43;;;;;;;13.15;9.20;;;11.10;99.90;;;;;;5031619;28;19909;-76
2022/10/09 03:25:09;;;;;;;;;;;11.10;99.90;;;;;;5030624;28;20025;-75
2022/10/09 03:27:34;;;;;;;15.52;8.30;;;11.10;99.90;;;;;;5031343;28;19917;-75
2022/10/09 03:30:00;;;;;;;;;;;11.10;99.90;;;;;;5031744;28;20059;-75
2022/10/09 03:32:26;;;;;;;17.73;8.65;;;11.10;99.90;;;;;;5029887;28;19925;-75
2022/10/09 03:34:51;;;;;;;;;;;11.00;99.90;;;;;;5030151;28;20498;-76
2022/10/09 03:37:17;;;;;;;19.40;9.27;;;11.10;99.90;;;;;;5031215;28;20445;-76
2022/10/09 03:39:42;;;;;;;;;;;11.00;99.90;;;;;;5031753;28;20034;-75
2022/10/09 03:42:08;;;;;;;14.52;9.95;;;11.00;99.90;;;;;;5029683;28;19972;-75
2022/10/09 03:44:33;;;;;;;;;;;11.00;99.90;;;;;;5031563;28;20768;-75
2022/10/09 03:46:59;;;;;;;19.67;9.95;;;11.00;99.90;;;;;;5029854;28;20641;-75
2022/10/09 03:49:25;;;;;;;;;;;11.10;99.90;;;;;;5031146;28;20048;-75
2022/10/09 03:51:50;;;;;;;15.85;9.00;;;11.00;99.90;;;;;;5030970;28;19912;-75
2022/10/09 03:54:16;;;;;;;;;;;11.10;99.90;;;;;;5029928;28;20444;-76
2022/10/09 03:56:41;;;;;;;15.23;9.00;;;11.10;99.90;;;;;;5030804;28;20429;-76
2022/10/09 03:59:08;;;;;;;;;;;11.20;99.90;;;;;;5031262;28;20026;-76
2022/10/09 04:01:34;;;;;;;15.85;10.00;;;11.20;99.90;;;;;;5028732;28;19955;-76
2022/10/09 04:04:00;;;;;;;15.73;11.18;;;11.20;99.90;;;;;;5029880;28;20235;-76
2022/10/09 04:06:26;;;;;;;;;;;11.20;99.90;;;;;;5010340;28;20569;-76
2022/10/09 04:08:51;;;;;;;21.02;13.55;;;11.20;99.90;;;;;;5009556;28;19995;-75
2022/10/09 04:11:17;;;;;;;;;;;11.20;99.90;;;;;;5011292;28;20034;-76
2022/10/09 04:13:42;;;;;;;18.00;10.40;;;11.30;99.90;;;;;;5010624;28;20370;-74
2022/10/09 04:16:11;;;;;;;;;;;11.30;99.90;;;;;;5011144;28;20062;-75
2022/10/09 04:18:38;;;;;;;16.02;9.60;;;11.30;99.90;;;;;;5010929;28;19956;-75
2022/10/09 04:21:04;;;;;;;15.63;10.15;;;11.30;99.90;;;;;;5010472;28;20029;-74
2022/10/09 04:23:30;;;;;;;;;;;11.20;99.90;;;;;;5009534;28;20026;-75
2022/10/09 04:25:58;;;;;;;14.48;9.43;;;11.30;99.90;;;;;;5010225;28;19909;-75
2022/10/09 04:28:27;;;;;;;17.13;10.95;;;11.30;99.90;;;;;;5010154;28;20116;-76
2022/10/09 04:30:53;;;;;;;19.40;12.02;;;11.30;99.90;;;;;;5020147;28;20028;-76
2022/10/09 04:33:19;;;;;;;;;;;11.50;99.90;;;;;;5024329;28;20522;-75
2022/10/09 04:35:48;;;;;;;14.75;9.00;;;11.50;99.90;;;;;;5020661;28;19909;-76
2022/10/09 04:38:14;;;;;;;13.50;9.65;;;11.50;99.90;;;;;;5029883;28;20100;-75
2022/10/09 04:40:39;;;;;;;;;;;11.50;99.90;;;;;;5030706;28;20528;-76
2022/10/09 04:43:05;;;;;;;14.13;8.85;;;11.50;99.90;;;;;;5022057;28;19913;-75
2022/10/09 04:45:31;;;;;;;;;;;11.40;99.90;;;;;;5017783;28;20018;-76
2022/10/09 04:47:56;;;;;;;26.05;10.95;;;11.50;99.90;;;;;;5017585;28;20313;-76
2022/10/09 04:50:22;;;;;;;;;;;11.40;99.90;;;;;;5010705;28;20032;-76
2022/10/09 04:52:47;;;;;;;18.92;10.43;;;11.40;99.90;;;;;;5019202;28;19923;-75
2022/10/09 04:55:13;;;;;;;;;;;11.50;99.90;;;;;;5030748;28;20065;-75
2022/10/09 04:57:39;;;;;;;11.57;9.10;;;11.50;99.90;;;;;;5028533;28;19909;-75
2022/10/09 05:00:05;;;;;;;;;;;11.50;99.90;;;;;;5029121;28;20025;-75
2022/10/09 05:02:30;;;;;;;17.55;11.30;;;11.50;99.90;;;;;;5027336;28;19913;-75
2022/10/09 05:04:56;;;;;;;;;;;11.60;99.90;;;;;;5014388;28;20037;-76
2022/10/09 05:07:23;;;;;;;15.18;11.95;;;11.60;99.90;;;;;;5008474;28;19962;-76
2022/10/09 05:09:48;;;;;;;14.55;10.40;;;11.60;99.90;;;;;;5015415;28;20033;-75
2022/10/09 05:12:14;;;;;;;;;;;11.80;99.90;;;;;;5027696;28;20029;-75
2022/10/09 05:14:39;;;;;;;14.73;9.95;;;11.80;99.90;;;;;;5028245;28;19916;-75
2022/10/09 05:17:06;;;;;;;;;;;11.90;99.90;;;;;;5028243;28;20033;-76
2022/10/09 05:19:32;;;;;;;23.10;11.00;;;12.00;99.90;;;;;;5028066;28;19935;-75
2022/10/09 05:21:59;;;;;;;18.15;10.50;;;12.00;99.90;;;;;;5028798;28;20028;-76
2022/10/09 05:24:25;;;;;;;18.48;11.23;;;12.10;99.90;;;;;;5027611;28;20038;-75
2022/10/09 05:26:51;;;;;;;;;;;12.20;99.90;;;;;;5025672;28;20049;-76
2022/10/09 05:29:17;;;;;;;20.75;11.93;;;12.30;99.90;;;;;;5028929;28;20403;-77
2022/10/09 05:31:43;;;;;;;17.30;11.05;;;12.40;99.90;;;;;;5028106;28;20022;-75
2022/10/09 05:34:08;;;;;;;;;;;12.40;99.90;;;;;;5027861;28;20405;-76
2022/10/09 05:36:34;;;;;;;14.75;9.35;;;12.50;99.90;;;;;;5028009;28;19975;-76
2022/10/09 05:39:00;;;;;;;;;;;12.50;99.90;;;;;;5027808;28;20040;-77
2022/10/09 05:41:28;;;;;;;13.75;7.72;;;12.60;99.90;;;;;;5028612;28;19909;-75
2022/10/09 05:43:54;;;;;;;14.55;10.13;;;12.50;99.90;;;;;;5029185;28;20036;-77
2022/10/09 05:46:23;;;;;;;19.98;11.68;;;12.50;99.90;;;;;;5028542;28;20036;-76
2022/10/09 05:48:54;;;;;;;18.85;11.68;;;12.50;99.90;;;;;;5027706;28;20232;-75
2022/10/09 05:51:26;;;;;;;19.27;11.80;;;12.40;99.90;;;;;;5027059;28;20021;-76
2022/10/09 05:53:52;;;;;;;23.42;12.63;;;12.30;99.90;;;;;;5016382;28;20045;-75
2022/10/09 05:56:20;;;;;;;22.02;11.77;;;12.30;99.90;;;;;;5007423;28;20029;-76
2022/10/09 05:58:57;;;;;;;35.45;19.77;;;12.30;99.90;;;;;;5011995;28;20040;-76
2022/10/09 06:01:29;;;;;;;27.08;15.15;;;12.30;99.90;;;;;;5027718;28;20077;-76
2022/10/09 06:03:56;;;;;;;22.10;10.25;;;12.40;99.90;;;;;;5008972;28;20406;-75
2022/10/09 06:06:25;;;;;;;11.75;7.95;;;12.60;99.90;;;;;;5007179;28;20111;-76
2022/10/09 06:08:50;;;;;;;10.20;7.13;;;12.80;99.90;;;;;;5007291;28;20486;-75
2022/10/09 06:11:18;;;;;;;;;;;13.20;99.90;;;;;;5007616;28;20037;-74
2022/10/09 06:13:44;;;;;;;12.63;7.78;;;13.50;99.90;;;;;;5007021;28;19959;-75
2022/10/09 06:16:12;;;;;;;11.55;7.00;;;13.60;99.90;;;;;;5008303;28;20070;-75
2022/10/09 06:18:40;;;;;;;13.43;8.95;;;13.70;99.90;;;;;;5006846;28;20486;-75
2022/10/09 06:21:06;;;;;;;16.77;11.35;;;13.80;99.90;;;;;;5007766;28;20520;-76
2022/10/09 06:23:32;;;;;;;22.23;13.35;;;13.90;99.90;;;;;;5020832;28;20121;-75
2022/10/09 06:26:00;;;;;;;15.75;11.68;;;14.00;99.90;;;;;;5019179;28;20035;-75
2022/10/09 06:28:28;;;;;;;17.15;11.50;;;14.10;99.90;;;;;;5020685;28;20517;-75
2022/10/09 06:31:03;;;;;;;15.70;8.68;;;14.30;99.90;;;;;;5020052;28;20033;-76
2022/10/09 06:33:30;;;;;;;22.35;9.55;;;14.40;99.90;;;;;;5021894;28;20045;-78
2022/10/09 06:36:00;;;;;;;23.95;9.20;;;14.20;99.90;;;;;;5026163;28;20040;-76
2022/10/09 06:38:26;;;;;;;15.10;8.60;;;14.20;99.90;;;;;;5029260;28;20112;-75
2022/10/09 06:40:52;;;;;;;;;;;14.20;99.90;;;;;;5031052;28;20125;-76
2022/10/09 06:43:17;;;;;;;12.85;9.10;;;14.50;99.90;;;;;;5030310;28;20325;-76
2022/10/09 06:45:43;;;;;;;11.48;8.07;;;15.10;99.90;;;;;;5031880;28;20036;-76
2022/10/09 06:48:09;;;;;;;17.42;7.22;;;15.80;99.90;;;;;;5031644;28;20029;-76
2022/10/09 06:50:35;;;;;;;12.80;7.43;;;16.30;99.90;;;;;;5030231;28;20018;-76
2022/10/09 06:53:04;;;;;;;14.45;7.47;;;16.80;99.90;;;;;;5030735;28;20033;-75
2022/10/09 06:55:31;;;;;;;16.52;6.55;;;17.10;99.90;;;;;;5031589;28;20026;-76
2022/10/09 06:57:57;;;;;;;11.55;7.53;;;17.20;99.90;;;;;;5031598;28;20032;-75
2022/10/09 07:00:23;;;;;;;13.77;6.63;;;17.40;99.90;;;;;;5025187;28;20105;-76
2022/10/09 07:02:49;;;;;;;15.93;6.65;;;18.00;99.90;;;;;;5011692;28;20140;-76
2022/10/09 07:05:15;;;;;;;10.70;6.50;;;18.80;99.90;;;;;;5011638;28;20372;-76
2022/10/09 07:07:41;;;;;;;9.30;5.45;;;19.30;99.90;;;;;;5010721;28;20501;-76
2022/10/09 07:10:08;;;;;;;11.80;5.30;;;19.60;99.90;;;;;;5023200;28;20029;-76
2022/10/09 07:12:37;;;;;;;9.32;5.03;;;19.80;99.90;;;;;;5015171;28;20038;-76
2022/10/09 07:15:04;;;;;;;8.90;5.03;;;20.10;99.90;;;;;;5012504;28;20030;-76
2022/10/09 07:17:30;;;;;;;7.88;4.47;;;20.40;99.90;;;;;;5011323;28;20069;-77
2022/10/09 07:19:56;;;;;;;10.85;5.05;;;20.40;99.90;;;;;;5010956;28;20034;-77
2022/10/09 07:22:22;;;;;;;17.88;5.72;;;20.30;99.90;;;;;;5010180;28;20440;-76
2022/10/09 07:24:49;;;;;;;11.73;6.72;;;20.30;99.90;;;;;;5011386;28;20056;-75
2022/10/09 07:27:15;;;;;;;19.85;6.25;;;20.30;99.90;;;;;;5010283;28;20482;-76
2022/10/09 07:29:41;;;;;;;15.77;5.45;;;20.30;99.90;;;;;;5011694;28;20109;-76
2022/10/09 07:32:06;;;;;;;11.10;5.38;;;20.10;99.90;;;;;;5010998;28;20101;-76
2022/10/09 07:34:32;;;;;;;10.98;6.32;;;20.00;99.90;;;;;;5009900;28;20041;-76
2022/10/09 07:36:58;;;;;;;7.93;5.40;;;19.90;99.90;;;;;;5009084;28;20022;-76
2022/10/09 07:39:23;;;;;;;15.45;5.72;;;19.70;99.90;;;;;;5009680;28;20088;-75
2022/10/09 07:41:50;;;;;;;9.65;5.93;;;19.50;99.90;;;;;;5010159;28;20022;-76
2022/10/09 07:44:17;;;;;;;11.15;5.55;;;19.40;99.90;;;;;;5009559;28;20029;-75
2022/10/09 07:46:43;;;;;;;12.98;6.47;;;19.10;99.90;;;;;;5010068;28;20053;-76
2022/10/09 07:49:08;;;;;;;12.00;6.68;;;19.10;99.90;;;;;;5010972;28;20487;-76
2022/10/09 07:51:34;;;;;;;15.38;6.68;;;18.90;99.90;;;;;;5009818;28;20084;-76
2022/10/09 07:54:03;;;;;;;12.55;6.50;;;18.70;99.90;;;;;;5009815;28;20041;-76
2022/10/09 07:56:31;;;;;;;9.70;5.20;;;18.60;99.90;;;;;;5009557;28;20022;-76
2022/10/09 07:59:03;;;;;;;9.55;5.45;;;18.80;99.90;;;;;;5010972;28;20030;-75
2022/10/09 08:01:30;;;;;;;13.90;5.10;;;18.80;99.90;;;;;;5011221;28;20029;-76
2022/10/09 08:03:57;;;;;;;7.85;4.85;;;18.90;99.90;;;;;;5009437;28;20046;-75
2022/10/09 08:06:23;;;;;;;13.35;5.22;;;19.00;99.90;;;;;;5008908;28;20084;-76
2022/10/09 08:08:50;;;;;;;12.52;5.47;;;19.10;99.90;;;;;;5009593;28;20490;-76
2022/10/09 08:11:17;;;;;;;11.93;6.00;;;19.30;99.90;;;;;;5010219;28;20034;-76
2022/10/09 08:13:44;;;;;;;8.82;4.35;;;19.30;99.90;;;;;;5010642;28;20041;-76
2022/10/09 08:16:10;;;;;;;7.68;5.13;;;19.20;99.90;;;;;;5011242;28;20018;-76
2022/10/09 08:18:36;;;;;;;12.18;5.32;;;19.40;99.90;;;;;;5009277;28;20403;-75
2022/10/09 08:21:14;;;;;;;8.82;4.72;;;20.30;99.90;;;;;;5009479;28;20026;-76
2022/10/09 08:23:40;;;;;;;15.00;5.30;;;21.50;99.90;;;;;;5019373;28;20041;-77
2022/10/09 08:26:18;;;;;;;7.95;4.75;;;22.50;99.90;;;;;;5019275;28;20036;-76
2022/10/09 08:28:52;;;;;;;12.80;5.78;;;23.00;98.90;;;;;;5009935;28;20026;-76
2022/10/09 08:31:17;;;;;;;14.80;5.13;;;22.90;98.50;;;;;;5008772;28;20017;-75
2022/10/09 08:33:43;;;;;;;10.55;5.13;;;22.80;98.90;;;;;;5010600;28;20038;-76
2022/10/09 08:36:14;;;;;;;10.73;5.93;;;22.80;98.60;;;;;;5009158;28;20481;-76
2022/10/09 08:38:39;;;;;;;22.42;5.53;;;23.10;98.50;;;;;;5009292;28;20038;-76
2022/10/09 08:41:27;;;;;;;9.18;5.07;;;23.00;98.20;;;;;;5010707;28;20034;-76
2022/10/09 08:44:02;;;;;;;10.20;5.38;;;22.80;97.70;;;;;;5009894;28;20034;-76
2022/10/09 08:46:34;;;;;;;11.63;5.88;;;22.30;98.00;;;;;;5009821;28;20057;-76
2022/10/09 08:49:02;;;;;;;11.43;6.15;;;21.80;99.20;;;;;;5009193;28;20084;-76
2022/10/09 08:51:34;;;;;;;16.50;6.20;;;21.40;99.90;;;;;;5008572;28;20486;-76
2022/10/09 08:54:18;;;;;;;13.80;7.10;;;20.90;99.90;;;;;;5009903;28;20045;-76
2022/10/09 08:56:45;;;;;;;11.65;6.40;;;20.40;99.90;;;;;;5010109;28;20038;-77
2022/10/09 08:59:11;;;;;;;12.43;7.13;;;20.10;99.90;;;;;;5009516;28;20022;-76
2022/10/09 09:01:54;;;;;;;12.80;6.88;;;19.80;99.90;;;;;;5008461;28;20078;-76
2022/10/09 09:04:25;;;;;;;10.27;6.25;;;19.60;99.90;;;;;;5009652;28;20053;-75
2022/10/09 09:06:56;;;;;;;11.57;6.68;;;19.40;99.90;;;;;;5009965;28;20113;-75
2022/10/09 09:09:38;;;;;;;8.57;5.97;;;19.10;99.90;;;;;;5015574;28;20445;-76
2022/10/09 09:12:08;;;;;;;16.02;6.45;;;18.90;99.90;;;;;;5020122;28;20030;-76
2022/10/09 09:14:49;;;;;;;14.05;6.68;;;18.70;99.90;;;;;;5014209;28;21257;-75
2022/10/09 09:17:21;;;;;;;9.25;6.47;;;18.50;99.90;;;;;;5013248;28;20036;-75
2022/10/09 09:20:09;;;;;;;12.00;6.25;;;18.40;99.90;;;;;;5007866;28;20034;-75
2022/10/09 09:22:38;;;;;;;10.00;6.15;;;18.20;99.90;;;;;;5008290;28;20053;-75
2022/10/09 09:25:24;;;;;;;10.30;6.63;;;18.10;99.90;;;;;;5007842;28;20044;-75
2022/10/09 09:27:52;;;;;;;12.13;7.20;;;18.00;99.90;;;;;;5009120;28;20072;-75
2022/10/09 09:30:31;;;;;;;12.32;7.60;;;17.90;99.90;;;;;;5007699;28;20034;-76
2022/10/09 09:33:14;;;;;;;13.85;6.60;;;17.90;99.90;;;;;;5013222;28;20037;-76
2022/10/09 09:35:58;;;;;;;13.63;6.93;;;17.90;99.90;;;;;;5018725;28;20040;-75
2022/10/09 09:38:24;;;;;;;16.13;6.38;;;18.00;99.90;;;;;;5011098;28;20517;-76
2022/10/09 09:40:49;;;;;;;10.43;6.20;;;18.00;99.90;;;;;;5009452;28;20030;-75
2022/10/09 09:43:21;;;;;;;9.75;5.22;;;18.20;99.90;;;;;;5010207;28;20533;-76
2022/10/09 09:45:51;;;;;;;14.15;5.40;;;19.20;99.90;;;;;;5010522;28;20042;-76
2022/10/09 09:48:34;;;;;;;13.57;4.80;;;20.50;99.90;;;;;;5016574;28;20024;-76
2022/10/09 09:51:02;;;;;;;9.10;5.30;;;21.80;99.90;;;;;;5007346;28;20479;-76
2022/10/09 09:53:32;;;;;;;15.10;4.88;;;23.10;99.90;;;;;;5007418;28;20041;-77
2022/10/09 09:55:58;;;;;;;11.13;5.30;;;23.90;97.90;;;;;;5007573;28;20088;-77
2022/10/09 09:58:38;;;;;;;11.93;4.72;;;24.60;96.90;;;;;;5008645;28;20483;-77
2022/10/09 10:01:05;;;;;;;16.27;5.05;;;25.10;95.00;;;;;;5007174;28;20026;-76
2022/10/09 10:03:33;;;;;;;10.55;4.95;;;25.00;94.00;;;;;;5010918;28;20198;-76
2022/10/09 10:05:59;;;;;;;12.93;4.80;;;24.50;94.10;;;;;;5020257;28;20533;-76
2022/10/09 10:08:32;;;;;;;9.75;6.13;;;24.10;94.20;;;;;;5025627;28;20032;-76
2022/10/09 10:11:00;;;;;;;16.95;5.45;;;23.70;95.60;;;;;;5024974;28;20076;-76
2022/10/09 10:13:29;;;;;;;10.18;4.90;;;23.70;95.70;;;;;;5014951;28;20037;-76
2022/10/09 10:15:56;;;;;;;8.13;5.30;;;23.80;95.50;;;;;;5019549;28;20034;-76
2022/10/09 10:18:24;;;;;;;9.65;4.93;;;23.80;95.20;;;;;;5016105;28;20032;-76
2022/10/09 10:21:03;;;;;;;13.07;4.82;;;23.90;94.80;;;;;;5016341;28;20389;-76
2022/10/09 10:23:41;;;;;;;7.72;4.65;;;23.80;94.70;;;;;;5017379;28;20029;-76
2022/10/09 10:26:33;;;;;;;8.25;5.10;;;23.80;94.60;;;;;;5024625;28;20022;-76
2022/10/09 10:29:17;;;;;;;15.27;5.43;;;23.60;94.20;;;;;;5018627;28;20401;-75
2022/10/09 10:32:01;;;;;;;11.40;6.13;;;23.40;93.60;;;;;;5006979;28;20037;-76
2022/10/09 10:34:51;;;;;;;14.18;5.78;;;22.90;94.70;;;;;;5006996;28;20060;-75
2022/10/09 10:37:32;;;;;;;13.45;6.70;;;22.30;95.50;;;;;;5007983;28;20037;-76
2022/10/09 10:40:31;;;;;;;14.02;5.78;;;21.80;97.00;;;;;;5007125;28;20029;-76
2022/10/09 10:43:06;;;;;;;13.38;6.18;;;21.60;98.20;;;;;;5009226;28;20034;-76
2022/10/09 10:46:06;;;;;;;10.60;5.57;;;21.50;98.90;;;;;;5007419;28;20080;-76
2022/10/09 10:48:46;;;;;;;9.40;6.07;;;21.30;99.60;;;;;;5007252;28;20041;-76
2022/10/09 10:51:37;;;;;;;15.13;6.22;;;21.20;99.90;;;;;;5008425;28;20026;-76
2022/10/09 10:54:21;;;;;;;15.07;6.78;;;21.00;99.90;;;;;;5007900;28;20045;-74
2022/10/09 10:56:52;;;;;;;9.25;6.00;;;20.90;99.90;;;;;;5006710;28;20076;-75
2022/10/09 10:59:46;;;;;;;14.27;5.97;;;20.70;99.90;;;;;;5008019;28;20073;-74
2022/10/09 11:02:51;;;;;;;10.98;5.43;;;20.60;99.90;;;;;;5008228;28;20066;-74
2022/10/09 11:05:43;;;;;;;8.45;5.78;;;20.40;99.90;;;;;;5008041;28;20046;-74
2022/10/09 11:08:21;;;;;;;11.95;6.13;;;20.30;99.90;;;;;;5006624;28;20030;-75
2022/10/09 11:11:05;;;;;;;13.30;6.32;;;20.20;99.90;;;;;;5008581;28;20558;-74
2022/10/09 11:13:49;;;;;;;11.88;6.93;;;20.10;99.90;;;;;;5010441;28;20083;-74
2022/10/09 11:16:33;;;;;;;8.75;4.72;;;20.00;99.90;;;;;;5015755;28;20048;-74
2022/10/09 11:19:33;;;;;;;18.13;7.60;;;20.00;99.90;;;;;;5026108;28;20071;-74
2022/10/09 11:22:11;;;;;;;11.55;6.35;;;20.00;99.90;;;;;;4975340;28;20046;-75
2022/10/09 11:25:04;;;;;;;17.23;7.13;;;19.90;99.90;;;;;;5016751;28;20111;-74
2022/10/09 11:27:32;;;;;;;16.33;6.90;;;19.70;99.90;;;;;;5021177;28;20092;-74
2022/10/09 11:30:02;;;;;;;11.35;6.47;;;19.60;99.90;;;;;;5018125;28;20442;-74
2022/10/09 11:32:35;;;;;;;17.55;6.28;;;19.40;99.90;;;;;;5010003;28;20025;-75
2022/10/09 11:35:19;;;;;;;15.70;6.05;;;19.30;99.90;;;;;;5011312;28;20483;-74
2022/10/09 11:37:56;;;;;;;14.63;6.53;;;19.10;99.90;;;;;;5013976;28;20532;-74
2022/10/09 11:40:28;;;;;;;10.55;5.90;;;19.00;99.90;;;;;;5029701;28;20029;-77
2022/10/09 11:43:27;;;;;;;15.88;7.78;;;18.90;99.90;;;;;;5011117;28;20038;-77
2022/10/09 11:45:58;;;;;;;19.10;8.68;;;18.80;99.90;;;;;;5009713;28;20029;-77
2022/10/09 11:48:49;;;;;;;14.27;8.57;;;18.80;99.90;;;;;;5014183;28;20057;-77
2022/10/09 11:51:50;;;;;;;12.10;7.68;;;18.80;99.90;;;;;;5013906;28;20127;-77
2022/10/09 11:54:20;;;;;;;20.40;10.75;;;18.70;99.90;;;;;;5016014;28;20410;-77
2022/10/09 11:57:04;;;;;;;15.68;10.63;;;18.70;99.90;;;;;;5019232;28;20099;-77
2022/10/09 11:59:40;;;;;;;20.98;7.45;;;18.60;99.90;;;;;;5020029;28;20030;-77
2022/10/09 12:02:25;;;;;;;14.40;7.43;;;18.60;99.90;;;;;;5020098;28;20033;-76
2022/10/09 12:04:51;;;;;;;12.23;6.70;;;18.60;99.90;;;;;;5035569;28;20125;-77
2022/10/09 12:07:28;;;;;;;11.95;6.68;;;18.50;99.90;;;;;;5014251;28;20091;-76
2022/10/09 12:10:23;;;;;;;19.73;7.63;;;18.50;99.90;;;;;;5015706;28;20048;-77
2022/10/09 12:13:00;;;;;;;10.95;6.13;;;18.50;99.90;;;;;;5010042;28;20045;-77
2022/10/09 12:15:43;;;;;;;13.13;6.13;;;18.40;99.90;;;;;;5019030;28;20043;-77
2022/10/09 12:18:32;;;;;;;9.25;4.97;;;18.40;99.90;;;;;;5024221;28;20486;-77
2022/10/09 12:21:02;;;;;;;14.50;5.88;;;18.40;99.90;;;;;;5029356;28;20040;-78
2022/10/09 12:23:31;;;;;;;11.68;6.35;;;18.50;99.90;;;;;;5029781;28;20033;-77
2022/10/09 12:25:57;;;;;;;14.43;5.85;;;18.60;99.90;;;;;;5028794;28;20033;-77
2022/10/09 12:28:36;;;;;;;8.00;5.05;;;18.60;99.90;;;;;;5029910;28;20128;-76
2022/10/09 12:31:05;;;;;;;10.63;5.70;;;18.70;99.90;;;;;;5028695;28;20028;-77
2022/10/09 12:33:48;;;;;;;11.32;5.65;;;18.80;99.90;;;;;;5028604;28;20409;-77
2022/10/09 12:36:21;;;;;;;14.27;5.95;;;18.80;99.90;;;;;;5030130;28;20033;-77
2022/10/09 12:38:46;;;;;;;22.80;5.90;;;18.90;99.90;;;;;;5015332;28;20088;-77
2022/10/09 12:41:20;;;;;;;11.02;5.45;;;19.00;99.90;;;;;;5008841;28;20525;-76
2022/10/09 12:43:48;;;;;;;15.02;6.22;;;19.00;99.90;;;;;;5008708;28;20030;-77
2022/10/09 12:46:24;;;;;;;14.43;6.60;;;19.00;99.90;;;;;;5008361;28;20030;-77
2022/10/09 12:48:49;;;;;;;11.45;6.07;;;19.10;99.90;;;;;;5010156;28;20084;-76
2022/10/09 12:51:24;;;;;;;13.45;5.97;;;19.20;99.90;;;;;;5009942;28;20033;-76
2022/10/09 12:53:51;;;;;;;14.15;5.25;;;19.30;99.90;;;;;;5010356;28;20026;-77
2022/10/09 12:56:31;;;;;;;14.20;6.75;;;19.30;99.90;;;;;;5025672;28;20552;-76
2022/10/09 12:58:59;;;;;;;9.60;5.30;;;19.20;99.90;;;;;;5010252;28;20056;-74
2022/10/09 13:01:25;;;;;;;12.15;5.40;;;19.20;99.90;;;;;;5019666;28;20379;-74
2022/10/09 13:03:54;;;;;;;9.55;5.63;;;19.20;99.90;;;;;;5009861;28;20062;-77
2022/10/09 13:06:23;;;;;;;10.18;5.40;;;19.10;99.90;;;;;;5008451;28;20284;-77
2022/10/09 13:09:01;;;;;;;14.55;6.47;;;19.00;99.90;;;;;;5010182;28;20034;-77